<?xml version='1.0' encoding='UTF-8'?>
<gpx version="1.1" creator="https://www.komoot.de" xmlns="http://www.topografix.com/GPX/1/1" xmlns:xsi="http://www.w3.org/2001/XMLSchema-instance" xsi:schemaLocation="http://www.topografix.com/GPX/1/1 http://www.topografix.com/GPX/1/1/gpx.xsd">
  <metadata>
    <name>RTF 2026 - Tour 5 "Familie" (29 km - 230 hm)</name>
    <author>
      <link href="https://www.komoot.de">
        <text>komoot</text>
        <type>text/html</type>
      </link>
    </author>
  </metadata>
  <trk>
    <name>RTF 2026 - Tour 5 "Familie" (29 km - 230 hm)</name>
    <trkseg>
      <trkpt lat="48.581700" lon="10.022114">
        <ele>604.930777</ele>
        <time>2025-11-11T18:27:44.095Z</time>
      </trkpt>
      <trkpt lat="48.581898" lon="10.022061">
        <ele>604.930777</ele>
        <time>2025-11-11T18:27:45.686Z</time>
      </trkpt>
      <trkpt lat="48.581589" lon="10.022428">
        <ele>604.930777</ele>
        <time>2025-11-11T18:27:49.973Z</time>
      </trkpt>
      <trkpt lat="48.581327" lon="10.022431">
        <ele>604.930777</ele>
        <time>2025-11-11T18:27:52.781Z</time>
      </trkpt>
      <trkpt lat="48.581224" lon="10.022377">
        <ele>604.651227</ele>
        <time>2025-11-11T18:27:53.933Z</time>
      </trkpt>
      <trkpt lat="48.581161" lon="10.022906">
        <ele>603.139558</ele>
        <time>2025-11-11T18:28:01.390Z</time>
      </trkpt>
      <trkpt lat="48.581097" lon="10.023435">
        <ele>601.627128</ele>
        <time>2025-11-11T18:28:08.847Z</time>
      </trkpt>
      <trkpt lat="48.581012" lon="10.023558">
        <ele>601.126891</ele>
        <time>2025-11-11T18:28:10.113Z</time>
      </trkpt>
      <trkpt lat="48.580997" lon="10.023757">
        <ele>600.563603</ele>
        <time>2025-11-11T18:28:11.572Z</time>
      </trkpt>
      <trkpt lat="48.580982" lon="10.023956">
        <ele>600.000313</ele>
        <time>2025-11-11T18:28:13.060Z</time>
      </trkpt>
      <trkpt lat="48.580945" lon="10.024714">
        <ele>597.862717</ele>
        <time>2025-11-11T18:28:19.053Z</time>
      </trkpt>
      <trkpt lat="48.580915" lon="10.024863">
        <ele>597.424691</ele>
        <time>2025-11-11T18:28:20.403Z</time>
      </trkpt>
      <trkpt lat="48.581143" lon="10.024942">
        <ele>597.441009</ele>
        <time>2025-11-11T18:28:22.648Z</time>
      </trkpt>
      <trkpt lat="48.581185" lon="10.024952">
        <ele>597.474138</ele>
        <time>2025-11-11T18:28:23.084Z</time>
      </trkpt>
      <trkpt lat="48.581332" lon="10.024963">
        <ele>597.588817</ele>
        <time>2025-11-11T18:28:24.640Z</time>
      </trkpt>
      <trkpt lat="48.581417" lon="10.024964">
        <ele>597.655049</ele>
        <time>2025-11-11T18:28:25.592Z</time>
      </trkpt>
      <trkpt lat="48.581447" lon="10.024965">
        <ele>597.678430</ele>
        <time>2025-11-11T18:28:25.961Z</time>
      </trkpt>
      <trkpt lat="48.581621" lon="10.024987">
        <ele>597.814480</ele>
        <time>2025-11-11T18:28:28.305Z</time>
      </trkpt>
      <trkpt lat="48.581685" lon="10.025041">
        <ele>597.871590</ele>
        <time>2025-11-11T18:28:29.371Z</time>
      </trkpt>
      <trkpt lat="48.581747" lon="10.025149">
        <ele>597.945299</ele>
        <time>2025-11-11T18:28:30.845Z</time>
      </trkpt>
      <trkpt lat="48.581825" lon="10.025404">
        <ele>598.090113</ele>
        <time>2025-11-11T18:28:34.028Z</time>
      </trkpt>
      <trkpt lat="48.581872" lon="10.025799">
        <ele>598.296988</ele>
        <time>2025-11-11T18:28:39.053Z</time>
      </trkpt>
      <trkpt lat="48.581886" lon="10.026008">
        <ele>598.405271</ele>
        <time>2025-11-11T18:28:41.726Z</time>
      </trkpt>
      <trkpt lat="48.581885" lon="10.026207">
        <ele>598.507851</ele>
        <time>2025-11-11T18:28:44.267Z</time>
      </trkpt>
      <trkpt lat="48.581885" lon="10.026271">
        <ele>598.540841</ele>
        <time>2025-11-11T18:28:45.130Z</time>
      </trkpt>
      <trkpt lat="48.581880" lon="10.026535">
        <ele>598.676979</ele>
        <time>2025-11-11T18:28:48.507Z</time>
      </trkpt>
      <trkpt lat="48.581877" lon="10.026677">
        <ele>598.746038</ele>
        <time>2025-11-11T18:28:50.272Z</time>
      </trkpt>
      <trkpt lat="48.581874" lon="10.026813">
        <ele>598.811627</ele>
        <time>2025-11-11T18:28:51.956Z</time>
      </trkpt>
      <trkpt lat="48.581874" lon="10.026860">
        <ele>598.834281</ele>
        <time>2025-11-11T18:28:52.509Z</time>
      </trkpt>
      <trkpt lat="48.581871" lon="10.027220">
        <ele>599.007814</ele>
        <time>2025-11-11T18:28:56.809Z</time>
      </trkpt>
      <trkpt lat="48.581871" lon="10.027369">
        <ele>599.079632</ele>
        <time>2025-11-11T18:28:58.478Z</time>
      </trkpt>
      <trkpt lat="48.581866" lon="10.027569">
        <ele>599.176101</ele>
        <time>2025-11-11T18:29:00.679Z</time>
      </trkpt>
      <trkpt lat="48.581865" lon="10.027999">
        <ele>599.383363</ele>
        <time>2025-11-11T18:29:05.207Z</time>
      </trkpt>
      <trkpt lat="48.581866" lon="10.028034">
        <ele>599.400249</ele>
        <time>2025-11-11T18:29:05.556Z</time>
      </trkpt>
      <trkpt lat="48.581885" lon="10.028268">
        <ele>599.513883</ele>
        <time>2025-11-11T18:29:07.770Z</time>
      </trkpt>
      <trkpt lat="48.581951" lon="10.028776">
        <ele>599.763416</ele>
        <time>2025-11-11T18:29:12.219Z</time>
      </trkpt>
      <trkpt lat="48.582003" lon="10.029174">
        <ele>599.958957</ele>
        <time>2025-11-11T18:29:15.112Z</time>
      </trkpt>
      <trkpt lat="48.582053" lon="10.029949">
        <ele>598.532249</ele>
        <time>2025-11-11T18:29:19.734Z</time>
      </trkpt>
      <trkpt lat="48.582062" lon="10.030487">
        <ele>597.408209</ele>
        <time>2025-11-11T18:29:22.632Z</time>
      </trkpt>
      <trkpt lat="48.582065" lon="10.030618">
        <ele>597.134435</ele>
        <time>2025-11-11T18:29:23.321Z</time>
      </trkpt>
      <trkpt lat="48.581764" lon="10.030645">
        <ele>596.182451</ele>
        <time>2025-11-11T18:29:30.183Z</time>
      </trkpt>
      <trkpt lat="48.581357" lon="10.030669">
        <ele>594.896499</ele>
        <time>2025-11-11T18:29:39.300Z</time>
      </trkpt>
      <trkpt lat="48.580338" lon="10.030730">
        <ele>591.250386</ele>
        <time>2025-11-11T18:30:02.059Z</time>
      </trkpt>
      <trkpt lat="48.579589" lon="10.030760">
        <ele>588.502869</ele>
        <time>2025-11-11T18:30:19.557Z</time>
      </trkpt>
      <trkpt lat="48.578393" lon="10.030808">
        <ele>586.754434</ele>
        <time>2025-11-11T18:30:49.987Z</time>
      </trkpt>
      <trkpt lat="48.578445" lon="10.033008">
        <ele>586.614037</ele>
        <time>2025-11-11T18:31:14.589Z</time>
      </trkpt>
      <trkpt lat="48.578494" lon="10.035097">
        <ele>587.909388</ele>
        <time>2025-11-11T18:31:43.993Z</time>
      </trkpt>
      <trkpt lat="48.578544" lon="10.037350">
        <ele>588.579270</ele>
        <time>2025-11-11T18:32:10.673Z</time>
      </trkpt>
      <trkpt lat="48.578608" lon="10.040399">
        <ele>586.195236</ele>
        <time>2025-11-11T18:32:37.496Z</time>
      </trkpt>
      <trkpt lat="48.578728" lon="10.046113">
        <ele>581.355162</ele>
        <time>2025-11-11T18:33:27.406Z</time>
      </trkpt>
      <trkpt lat="48.578929" lon="10.054230">
        <ele>582.193182</ele>
        <time>2025-11-11T18:34:59.282Z</time>
      </trkpt>
      <trkpt lat="48.577845" lon="10.053872">
        <ele>582.480966</ele>
        <time>2025-11-11T18:35:13.233Z</time>
      </trkpt>
      <trkpt lat="48.577630" lon="10.054758">
        <ele>582.663031</ele>
        <time>2025-11-11T18:35:21.058Z</time>
      </trkpt>
      <trkpt lat="48.577018" lon="10.058574">
        <ele>583.433063</ele>
        <time>2025-11-11T18:35:54.936Z</time>
      </trkpt>
      <trkpt lat="48.576738" lon="10.060319">
        <ele>583.342165</ele>
        <time>2025-11-11T18:36:09.497Z</time>
      </trkpt>
      <trkpt lat="48.576591" lon="10.062958">
        <ele>582.066261</ele>
        <time>2025-11-11T18:36:26.973Z</time>
      </trkpt>
      <trkpt lat="48.576413" lon="10.066143">
        <ele>579.510709</ele>
        <time>2025-11-11T18:36:47.069Z</time>
      </trkpt>
      <trkpt lat="48.576369" lon="10.067387">
        <ele>578.391132</ele>
        <time>2025-11-11T18:36:54.900Z</time>
      </trkpt>
      <trkpt lat="48.576206" lon="10.067497">
        <ele>578.148657</ele>
        <time>2025-11-11T18:36:56.567Z</time>
      </trkpt>
      <trkpt lat="48.575794" lon="10.067774">
        <ele>577.185253</ele>
        <time>2025-11-11T18:37:00.620Z</time>
      </trkpt>
      <trkpt lat="48.575492" lon="10.068240">
        <ele>576.165502</ele>
        <time>2025-11-11T18:37:04.209Z</time>
      </trkpt>
      <trkpt lat="48.575313" lon="10.068586">
        <ele>575.478873</ele>
        <time>2025-11-11T18:37:06.598Z</time>
      </trkpt>
      <trkpt lat="48.575131" lon="10.068845">
        <ele>574.888221</ele>
        <time>2025-11-11T18:37:08.665Z</time>
      </trkpt>
      <trkpt lat="48.574799" lon="10.069033">
        <ele>574.050519</ele>
        <time>2025-11-11T18:37:11.606Z</time>
      </trkpt>
      <trkpt lat="48.573236" lon="10.069779">
        <ele>571.516826</ele>
        <time>2025-11-11T18:37:26.259Z</time>
      </trkpt>
      <trkpt lat="48.572895" lon="10.069890">
        <ele>571.126870</ele>
        <time>2025-11-11T18:37:30.163Z</time>
      </trkpt>
      <trkpt lat="48.572596" lon="10.069894">
        <ele>571.250562</ele>
        <time>2025-11-11T18:37:33.909Z</time>
      </trkpt>
      <trkpt lat="48.571897" lon="10.069891">
        <ele>571.539719</ele>
        <time>2025-11-11T18:37:44.038Z</time>
      </trkpt>
      <trkpt lat="48.571646" lon="10.069950">
        <ele>571.644798</ele>
        <time>2025-11-11T18:37:47.882Z</time>
      </trkpt>
      <trkpt lat="48.571351" lon="10.070081">
        <ele>571.771990</ele>
        <time>2025-11-11T18:37:52.413Z</time>
      </trkpt>
      <trkpt lat="48.571170" lon="10.070214">
        <ele>571.819103</ele>
        <time>2025-11-11T18:37:55.174Z</time>
      </trkpt>
      <trkpt lat="48.570852" lon="10.070550">
        <ele>571.492285</ele>
        <time>2025-11-11T18:37:59.927Z</time>
      </trkpt>
      <trkpt lat="48.570498" lon="10.071220">
        <ele>571.014430</ele>
        <time>2025-11-11T18:38:05.790Z</time>
      </trkpt>
      <trkpt lat="48.569904" lon="10.072557">
        <ele>570.036893</ele>
        <time>2025-11-11T18:38:15.350Z</time>
      </trkpt>
      <trkpt lat="48.569788" lon="10.072764">
        <ele>569.828527</ele>
        <time>2025-11-11T18:38:16.976Z</time>
      </trkpt>
      <trkpt lat="48.569545" lon="10.073030">
        <ele>569.480212</ele>
        <time>2025-11-11T18:38:19.730Z</time>
      </trkpt>
      <trkpt lat="48.569310" lon="10.073174">
        <ele>569.185837</ele>
        <time>2025-11-11T18:38:22.097Z</time>
      </trkpt>
      <trkpt lat="48.568990" lon="10.073195">
        <ele>568.814013</ele>
        <time>2025-11-11T18:38:25.156Z</time>
      </trkpt>
      <trkpt lat="48.567005" lon="10.072896">
        <ele>567.795262</ele>
        <time>2025-11-11T18:38:46.700Z</time>
      </trkpt>
      <trkpt lat="48.566876" lon="10.072911">
        <ele>567.756885</ele>
        <time>2025-11-11T18:38:48.273Z</time>
      </trkpt>
      <trkpt lat="48.566611" lon="10.073031">
        <ele>567.667913</ele>
        <time>2025-11-11T18:38:51.702Z</time>
      </trkpt>
      <trkpt lat="48.566515" lon="10.073125">
        <ele>567.626663</ele>
        <time>2025-11-11T18:38:53.135Z</time>
      </trkpt>
      <trkpt lat="48.566161" lon="10.073486">
        <ele>567.472663</ele>
        <time>2025-11-11T18:38:58.598Z</time>
      </trkpt>
      <trkpt lat="48.565824" lon="10.073767">
        <ele>567.333868</ele>
        <time>2025-11-11T18:39:03.295Z</time>
      </trkpt>
      <trkpt lat="48.565462" lon="10.074019">
        <ele>567.190145</ele>
        <time>2025-11-11T18:39:07.670Z</time>
      </trkpt>
      <trkpt lat="48.565155" lon="10.074189">
        <ele>567.072242</ele>
        <time>2025-11-11T18:39:10.959Z</time>
      </trkpt>
      <trkpt lat="48.564403" lon="10.074493">
        <ele>565.488722</ele>
        <time>2025-11-11T18:39:17.832Z</time>
      </trkpt>
      <trkpt lat="48.564292" lon="10.074511">
        <ele>565.251862</ele>
        <time>2025-11-11T18:39:18.776Z</time>
      </trkpt>
      <trkpt lat="48.564215" lon="10.074535">
        <ele>565.085052</ele>
        <time>2025-11-11T18:39:19.435Z</time>
      </trkpt>
      <trkpt lat="48.563654" lon="10.074695">
        <ele>563.873766</ele>
        <time>2025-11-11T18:39:24.244Z</time>
      </trkpt>
      <trkpt lat="48.563319" lon="10.074803">
        <ele>563.126038</ele>
        <time>2025-11-11T18:39:27.136Z</time>
      </trkpt>
      <trkpt lat="48.562725" lon="10.075037">
        <ele>561.536610</ele>
        <time>2025-11-11T18:39:32.369Z</time>
      </trkpt>
      <trkpt lat="48.562334" lon="10.075257">
        <ele>560.456298</ele>
        <time>2025-11-11T18:39:35.946Z</time>
      </trkpt>
      <trkpt lat="48.561913" lon="10.075462">
        <ele>559.311016</ele>
        <time>2025-11-11T18:39:39.656Z</time>
      </trkpt>
      <trkpt lat="48.560381" lon="10.075805">
        <ele>554.849662</ele>
        <time>2025-11-11T18:39:52.281Z</time>
      </trkpt>
      <trkpt lat="48.560219" lon="10.075840">
        <ele>554.367706</ele>
        <time>2025-11-11T18:39:53.634Z</time>
      </trkpt>
      <trkpt lat="48.559897" lon="10.075937">
        <ele>553.400725</ele>
        <time>2025-11-11T18:39:56.356Z</time>
      </trkpt>
      <trkpt lat="48.559564" lon="10.076145">
        <ele>552.489608</ele>
        <time>2025-11-11T18:39:59.369Z</time>
      </trkpt>
      <trkpt lat="48.558279" lon="10.077250">
        <ele>548.826956</ele>
        <time>2025-11-11T18:40:11.847Z</time>
      </trkpt>
      <trkpt lat="48.557997" lon="10.077409">
        <ele>548.490673</ele>
        <time>2025-11-11T18:40:14.522Z</time>
      </trkpt>
      <trkpt lat="48.557743" lon="10.077521">
        <ele>548.195058</ele>
        <time>2025-11-11T18:40:16.968Z</time>
      </trkpt>
      <trkpt lat="48.557447" lon="10.077617">
        <ele>547.856824</ele>
        <time>2025-11-11T18:40:19.833Z</time>
      </trkpt>
      <trkpt lat="48.557228" lon="10.077648">
        <ele>547.611078</ele>
        <time>2025-11-11T18:40:21.978Z</time>
      </trkpt>
      <trkpt lat="48.556985" lon="10.077661">
        <ele>547.339421</ele>
        <time>2025-11-11T18:40:24.414Z</time>
      </trkpt>
      <trkpt lat="48.556889" lon="10.077665">
        <ele>547.232125</ele>
        <time>2025-11-11T18:40:25.413Z</time>
      </trkpt>
      <trkpt lat="48.556762" lon="10.077665">
        <ele>547.090237</ele>
        <time>2025-11-11T18:40:26.763Z</time>
      </trkpt>
      <trkpt lat="48.556597" lon="10.077669">
        <ele>546.905870</ele>
        <time>2025-11-11T18:40:28.565Z</time>
      </trkpt>
      <trkpt lat="48.556478" lon="10.077680">
        <ele>546.888809</ele>
        <time>2025-11-11T18:40:29.893Z</time>
      </trkpt>
      <trkpt lat="48.556320" lon="10.077717">
        <ele>547.152512</ele>
        <time>2025-11-11T18:40:31.745Z</time>
      </trkpt>
      <trkpt lat="48.556283" lon="10.077725">
        <ele>547.214159</ele>
        <time>2025-11-11T18:40:32.201Z</time>
      </trkpt>
      <trkpt lat="48.556033" lon="10.077799">
        <ele>547.634327</ele>
        <time>2025-11-11T18:40:35.302Z</time>
      </trkpt>
      <trkpt lat="48.556033" lon="10.077876">
        <ele>547.718385</ele>
        <time>2025-11-11T18:40:36.209Z</time>
      </trkpt>
      <trkpt lat="48.556033" lon="10.077799">
        <ele>547.802443</ele>
        <time>2025-11-11T18:40:37.097Z</time>
      </trkpt>
      <trkpt lat="48.556283" lon="10.077725">
        <ele>548.222611</ele>
        <time>2025-11-11T18:40:40.939Z</time>
      </trkpt>
      <trkpt lat="48.556320" lon="10.077717">
        <ele>548.284258</ele>
        <time>2025-11-11T18:40:41.531Z</time>
      </trkpt>
      <trkpt lat="48.556478" lon="10.077680">
        <ele>548.547962</ele>
        <time>2025-11-11T18:40:44.258Z</time>
      </trkpt>
      <trkpt lat="48.556597" lon="10.077669">
        <ele>548.744598</ele>
        <time>2025-11-11T18:40:46.507Z</time>
      </trkpt>
      <trkpt lat="48.556762" lon="10.077665">
        <ele>549.016770</ele>
        <time>2025-11-11T18:40:49.889Z</time>
      </trkpt>
      <trkpt lat="48.556889" lon="10.077665">
        <ele>549.226233</ele>
        <time>2025-11-11T18:40:52.568Z</time>
      </trkpt>
      <trkpt lat="48.556894" lon="10.077757">
        <ele>549.327002</ele>
        <time>2025-11-11T18:40:54.125Z</time>
      </trkpt>
      <trkpt lat="48.556982" lon="10.077970">
        <ele>549.601103</ele>
        <time>2025-11-11T18:40:58.508Z</time>
      </trkpt>
      <trkpt lat="48.557276" lon="10.078587">
        <ele>551.453113</ele>
        <time>2025-11-11T18:41:13.231Z</time>
      </trkpt>
      <trkpt lat="48.557400" lon="10.078847">
        <ele>552.357360</ele>
        <time>2025-11-11T18:41:19.893Z</time>
      </trkpt>
      <trkpt lat="48.557593" lon="10.079277">
        <ele>553.823337</ele>
        <time>2025-11-11T18:41:31.096Z</time>
      </trkpt>
      <trkpt lat="48.557808" lon="10.079705">
        <ele>555.339434</ele>
        <time>2025-11-11T18:41:42.544Z</time>
      </trkpt>
      <trkpt lat="48.558197" lon="10.080511">
        <ele>557.818566</ele>
        <time>2025-11-11T18:42:01.584Z</time>
      </trkpt>
      <trkpt lat="48.558402" lon="10.080988">
        <ele>558.654252</ele>
        <time>2025-11-11T18:42:11.695Z</time>
      </trkpt>
      <trkpt lat="48.558765" lon="10.081866">
        <ele>560.175368</ele>
        <time>2025-11-11T18:42:27.489Z</time>
      </trkpt>
      <trkpt lat="48.558950" lon="10.082311">
        <ele>560.947519</ele>
        <time>2025-11-11T18:42:34.358Z</time>
      </trkpt>
      <trkpt lat="48.558956" lon="10.082474">
        <ele>561.187393</ele>
        <time>2025-11-11T18:42:36.387Z</time>
      </trkpt>
      <trkpt lat="48.558903" lon="10.082862">
        <ele>561.476838</ele>
        <time>2025-11-11T18:42:44.762Z</time>
      </trkpt>
      <trkpt lat="48.558759" lon="10.083935">
        <ele>561.625276</ele>
        <time>2025-11-11T18:43:07.267Z</time>
      </trkpt>
      <trkpt lat="48.558642" lon="10.084832">
        <ele>561.749231</ele>
        <time>2025-11-11T18:43:25.134Z</time>
      </trkpt>
      <trkpt lat="48.558612" lon="10.085062">
        <ele>561.781015</ele>
        <time>2025-11-11T18:43:29.659Z</time>
      </trkpt>
      <trkpt lat="48.558245" lon="10.087891">
        <ele>561.090689</ele>
        <time>2025-11-11T18:44:24.479Z</time>
      </trkpt>
      <trkpt lat="48.557972" lon="10.088686">
        <ele>560.101295</ele>
        <time>2025-11-11T18:44:40.430Z</time>
      </trkpt>
      <trkpt lat="48.556879" lon="10.088644">
        <ele>558.124616</ele>
        <time>2025-11-11T18:45:07.891Z</time>
      </trkpt>
      <trkpt lat="48.554704" lon="10.088561">
        <ele>551.656610</ele>
        <time>2025-11-11T18:45:59.503Z</time>
      </trkpt>
      <trkpt lat="48.554640" lon="10.088528">
        <ele>551.414256</ele>
        <time>2025-11-11T18:46:01.102Z</time>
      </trkpt>
      <trkpt lat="48.554586" lon="10.088423">
        <ele>551.098836</ele>
        <time>2025-11-11T18:46:03.182Z</time>
      </trkpt>
      <trkpt lat="48.554418" lon="10.088521">
        <ele>550.453438</ele>
        <time>2025-11-11T18:46:04.637Z</time>
      </trkpt>
      <trkpt lat="48.554342" lon="10.088565">
        <ele>550.161755</ele>
        <time>2025-11-11T18:46:05.294Z</time>
      </trkpt>
      <trkpt lat="48.553561" lon="10.088816">
        <ele>547.300182</ele>
        <time>2025-11-11T18:46:14.444Z</time>
      </trkpt>
      <trkpt lat="48.552749" lon="10.089024">
        <ele>544.253855</ele>
        <time>2025-11-11T18:46:23.586Z</time>
      </trkpt>
      <trkpt lat="48.551973" lon="10.088935">
        <ele>541.299467</ele>
        <time>2025-11-11T18:46:32.309Z</time>
      </trkpt>
      <trkpt lat="48.551133" lon="10.088893">
        <ele>538.346296</ele>
        <time>2025-11-11T18:46:42.048Z</time>
      </trkpt>
      <trkpt lat="48.550806" lon="10.088805">
        <ele>537.381899</ele>
        <time>2025-11-11T18:46:46.124Z</time>
      </trkpt>
      <trkpt lat="48.550688" lon="10.088503">
        <ele>536.707880</ele>
        <time>2025-11-11T18:46:49.009Z</time>
      </trkpt>
      <trkpt lat="48.550614" lon="10.088399">
        <ele>536.414418</ele>
        <time>2025-11-11T18:46:50.248Z</time>
      </trkpt>
      <trkpt lat="48.550382" lon="10.088999">
        <ele>535.078886</ele>
        <time>2025-11-11T18:46:54.072Z</time>
      </trkpt>
      <trkpt lat="48.550092" lon="10.089602">
        <ele>533.616786</ele>
        <time>2025-11-11T18:46:58.061Z</time>
      </trkpt>
      <trkpt lat="48.549828" lon="10.090150">
        <ele>532.160086</ele>
        <time>2025-11-11T18:47:01.632Z</time>
      </trkpt>
      <trkpt lat="48.549380" lon="10.091231">
        <ele>529.418917</ele>
        <time>2025-11-11T18:47:08.384Z</time>
      </trkpt>
      <trkpt lat="48.549017" lon="10.092341">
        <ele>527.310956</ele>
        <time>2025-11-11T18:47:15.140Z</time>
      </trkpt>
      <trkpt lat="48.548823" lon="10.093050">
        <ele>526.364397</ele>
        <time>2025-11-11T18:47:19.574Z</time>
      </trkpt>
      <trkpt lat="48.548627" lon="10.093882">
        <ele>525.274795</ele>
        <time>2025-11-11T18:47:25.035Z</time>
      </trkpt>
      <trkpt lat="48.548317" lon="10.095672">
        <ele>523.097624</ele>
        <time>2025-11-11T18:47:37.242Z</time>
      </trkpt>
      <trkpt lat="48.548013" lon="10.097449">
        <ele>519.980424</ele>
        <time>2025-11-11T18:47:47.633Z</time>
      </trkpt>
      <trkpt lat="48.547589" lon="10.099263">
        <ele>513.979275</ele>
        <time>2025-11-11T18:47:57.192Z</time>
      </trkpt>
      <trkpt lat="48.547296" lon="10.100216">
        <ele>510.065558</ele>
        <time>2025-11-11T18:48:02.254Z</time>
      </trkpt>
      <trkpt lat="48.547131" lon="10.100754">
        <ele>507.722035</ele>
        <time>2025-11-11T18:48:05.111Z</time>
      </trkpt>
      <trkpt lat="48.546645" lon="10.102052">
        <ele>501.849314</ele>
        <time>2025-11-11T18:48:12.423Z</time>
      </trkpt>
      <trkpt lat="48.546272" lon="10.102903">
        <ele>497.981802</ele>
        <time>2025-11-11T18:48:17.382Z</time>
      </trkpt>
      <trkpt lat="48.545991" lon="10.103487">
        <ele>495.246007</ele>
        <time>2025-11-11T18:48:20.886Z</time>
      </trkpt>
      <trkpt lat="48.545560" lon="10.104368">
        <ele>491.472745</ele>
        <time>2025-11-11T18:48:26.253Z</time>
      </trkpt>
      <trkpt lat="48.545358" lon="10.104750">
        <ele>490.354079</ele>
        <time>2025-11-11T18:48:28.702Z</time>
      </trkpt>
      <trkpt lat="48.544657" lon="10.105850">
        <ele>486.860492</ele>
        <time>2025-11-11T18:48:36.948Z</time>
      </trkpt>
      <trkpt lat="48.544060" lon="10.106613">
        <ele>485.433292</ele>
        <time>2025-11-11T18:48:43.985Z</time>
      </trkpt>
      <trkpt lat="48.543837" lon="10.106872">
        <ele>485.201734</ele>
        <time>2025-11-11T18:48:46.673Z</time>
      </trkpt>
      <trkpt lat="48.544243" lon="10.106908">
        <ele>484.866954</ele>
        <time>2025-11-11T18:48:50.792Z</time>
      </trkpt>
      <trkpt lat="48.544347" lon="10.106915">
        <ele>484.781261</ele>
        <time>2025-11-11T18:48:51.923Z</time>
      </trkpt>
      <trkpt lat="48.544539" lon="10.106954">
        <ele>484.621791</ele>
        <time>2025-11-11T18:48:54.156Z</time>
      </trkpt>
      <trkpt lat="48.544671" lon="10.107039">
        <ele>484.503671</ele>
        <time>2025-11-11T18:48:55.927Z</time>
      </trkpt>
      <trkpt lat="48.544786" lon="10.107207">
        <ele>484.371977</ele>
        <time>2025-11-11T18:48:58.016Z</time>
      </trkpt>
      <trkpt lat="48.544840" lon="10.107423">
        <ele>484.461484</ele>
        <time>2025-11-11T18:49:00.070Z</time>
      </trkpt>
      <trkpt lat="48.544876" lon="10.107767">
        <ele>484.659539</ele>
        <time>2025-11-11T18:49:03.286Z</time>
      </trkpt>
      <trkpt lat="48.544966" lon="10.109634">
        <ele>485.724077</ele>
        <time>2025-11-11T18:49:21.704Z</time>
      </trkpt>
      <trkpt lat="48.545016" lon="10.109971">
        <ele>485.932256</ele>
        <time>2025-11-11T18:49:25.197Z</time>
      </trkpt>
      <trkpt lat="48.545078" lon="10.110192">
        <ele>486.135945</ele>
        <time>2025-11-11T18:49:27.727Z</time>
      </trkpt>
      <trkpt lat="48.545007" lon="10.110363">
        <ele>486.307236</ele>
        <time>2025-11-11T18:49:29.898Z</time>
      </trkpt>
      <trkpt lat="48.544896" lon="10.110969">
        <ele>486.840819</ele>
        <time>2025-11-11T18:49:37.016Z</time>
      </trkpt>
      <trkpt lat="48.544862" lon="10.111280">
        <ele>487.108314</ele>
        <time>2025-11-11T18:49:40.720Z</time>
      </trkpt>
      <trkpt lat="48.544876" lon="10.111525">
        <ele>487.316999</ele>
        <time>2025-11-11T18:49:43.655Z</time>
      </trkpt>
      <trkpt lat="48.545022" lon="10.112669">
        <ele>488.090359</ele>
        <time>2025-11-11T18:49:56.209Z</time>
      </trkpt>
      <trkpt lat="48.545136" lon="10.113260">
        <ele>487.526734</ele>
        <time>2025-11-11T18:50:00.795Z</time>
      </trkpt>
      <trkpt lat="48.545149" lon="10.113492">
        <ele>487.313554</ele>
        <time>2025-11-11T18:50:02.259Z</time>
      </trkpt>
      <trkpt lat="48.545132" lon="10.114105">
        <ele>486.751795</ele>
        <time>2025-11-11T18:50:05.803Z</time>
      </trkpt>
      <trkpt lat="48.545183" lon="10.114732">
        <ele>486.173393</ele>
        <time>2025-11-11T18:50:09.194Z</time>
      </trkpt>
      <trkpt lat="48.545155" lon="10.115126">
        <ele>485.810572</ele>
        <time>2025-11-11T18:50:11.310Z</time>
      </trkpt>
      <trkpt lat="48.544913" lon="10.116158">
        <ele>486.231226</ele>
        <time>2025-11-11T18:50:18.447Z</time>
      </trkpt>
      <trkpt lat="48.544853" lon="10.116304">
        <ele>486.320917</ele>
        <time>2025-11-11T18:50:20.337Z</time>
      </trkpt>
      <trkpt lat="48.544781" lon="10.116466">
        <ele>486.422758</ele>
        <time>2025-11-11T18:50:22.605Z</time>
      </trkpt>
      <trkpt lat="48.544456" lon="10.117198">
        <ele>486.882782</ele>
        <time>2025-11-11T18:50:34.087Z</time>
      </trkpt>
      <trkpt lat="48.544239" lon="10.117681">
        <ele>487.110517</ele>
        <time>2025-11-11T18:50:41.976Z</time>
      </trkpt>
      <trkpt lat="48.544606" lon="10.118212">
        <ele>486.949552</ele>
        <time>2025-11-11T18:50:51.120Z</time>
      </trkpt>
      <trkpt lat="48.545070" lon="10.118853">
        <ele>486.750393</ele>
        <time>2025-11-11T18:51:30.097Z</time>
      </trkpt>
      <trkpt lat="48.545512" lon="10.119584">
        <ele>486.417821</ele>
        <time>2025-11-11T18:52:07.601Z</time>
      </trkpt>
      <trkpt lat="48.545775" lon="10.120330">
        <ele>485.137232</ele>
        <time>2025-11-11T18:52:39.183Z</time>
      </trkpt>
      <trkpt lat="48.546173" lon="10.121462">
        <ele>483.195207</ele>
        <time>2025-11-11T18:53:27.479Z</time>
      </trkpt>
      <trkpt lat="48.546428" lon="10.122068">
        <ele>482.326753</ele>
        <time>2025-11-11T18:53:55.782Z</time>
      </trkpt>
      <trkpt lat="48.546326" lon="10.122221">
        <ele>482.210715</ele>
        <time>2025-11-11T18:54:04.496Z</time>
      </trkpt>
      <trkpt lat="48.546247" lon="10.122291">
        <ele>482.136781</ele>
        <time>2025-11-11T18:54:06.970Z</time>
      </trkpt>
      <trkpt lat="48.546183" lon="10.122365">
        <ele>482.071720</ele>
        <time>2025-11-11T18:54:11.943Z</time>
      </trkpt>
      <trkpt lat="48.546115" lon="10.122563">
        <ele>481.952517</ele>
        <time>2025-11-11T18:54:21.088Z</time>
      </trkpt>
      <trkpt lat="48.546120" lon="10.123007">
        <ele>481.715208</ele>
        <time>2025-11-11T18:54:39.386Z</time>
      </trkpt>
      <trkpt lat="48.546079" lon="10.123551">
        <ele>481.422614</ele>
        <time>2025-11-11T18:55:02.238Z</time>
      </trkpt>
      <trkpt lat="48.545743" lon="10.125699">
        <ele>480.143138</ele>
        <time>2025-11-11T18:56:31.333Z</time>
      </trkpt>
      <trkpt lat="48.545989" lon="10.125796">
        <ele>479.910598</ele>
        <time>2025-11-11T18:56:33.750Z</time>
      </trkpt>
      <trkpt lat="48.545867" lon="10.126360">
        <ele>479.551324</ele>
        <time>2025-11-11T18:56:57.502Z</time>
      </trkpt>
      <trkpt lat="48.545700" lon="10.126767">
        <ele>479.314821</ele>
        <time>2025-11-11T18:57:16.773Z</time>
      </trkpt>
      <trkpt lat="48.545592" lon="10.126947">
        <ele>479.257106</ele>
        <time>2025-11-11T18:57:26.560Z</time>
      </trkpt>
      <trkpt lat="48.545259" lon="10.127504">
        <ele>479.078799</ele>
        <time>2025-11-11T18:57:57.538Z</time>
      </trkpt>
      <trkpt lat="48.545080" lon="10.127862">
        <ele>478.972212</ele>
        <time>2025-11-11T18:58:16.178Z</time>
      </trkpt>
      <trkpt lat="48.544248" lon="10.129752">
        <ele>479.038900</ele>
        <time>2025-11-11T18:59:51.311Z</time>
      </trkpt>
      <trkpt lat="48.543932" lon="10.130345">
        <ele>479.262611</ele>
        <time>2025-11-11T19:00:24.230Z</time>
      </trkpt>
      <trkpt lat="48.543789" lon="10.130612">
        <ele>479.363538</ele>
        <time>2025-11-11T19:00:39.311Z</time>
      </trkpt>
      <trkpt lat="48.543599" lon="10.131056">
        <ele>479.590915</ele>
        <time>2025-11-11T19:01:02.748Z</time>
      </trkpt>
      <trkpt lat="48.543532" lon="10.131288">
        <ele>479.987058</ele>
        <time>2025-11-11T19:01:13.798Z</time>
      </trkpt>
      <trkpt lat="48.543479" lon="10.131656">
        <ele>480.576483</ele>
        <time>2025-11-11T19:01:30.560Z</time>
      </trkpt>
      <trkpt lat="48.543475" lon="10.132055">
        <ele>481.201028</ele>
        <time>2025-11-11T19:01:48.824Z</time>
      </trkpt>
      <trkpt lat="48.543543" lon="10.132513">
        <ele>481.935645</ele>
        <time>2025-11-11T19:02:10.925Z</time>
      </trkpt>
      <trkpt lat="48.543624" lon="10.132755">
        <ele>482.360050</ele>
        <time>2025-11-11T19:02:24.048Z</time>
      </trkpt>
      <trkpt lat="48.543713" lon="10.132907">
        <ele>482.677634</ele>
        <time>2025-11-11T19:02:33.975Z</time>
      </trkpt>
      <trkpt lat="48.543621" lon="10.133042">
        <ele>482.980856</ele>
        <time>2025-11-11T19:02:36.917Z</time>
      </trkpt>
      <trkpt lat="48.543536" lon="10.133161">
        <ele>483.254836</ele>
        <time>2025-11-11T19:02:39.546Z</time>
      </trkpt>
      <trkpt lat="48.543317" lon="10.133465">
        <ele>484.023859</ele>
        <time>2025-11-11T19:02:46.439Z</time>
      </trkpt>
      <trkpt lat="48.543163" lon="10.133877">
        <ele>485.003841</ele>
        <time>2025-11-11T19:02:53.916Z</time>
      </trkpt>
      <trkpt lat="48.543047" lon="10.134325">
        <ele>486.000219</ele>
        <time>2025-11-11T19:03:01.958Z</time>
      </trkpt>
      <trkpt lat="48.542830" lon="10.135477">
        <ele>488.481045</ele>
        <time>2025-11-11T19:03:19.602Z</time>
      </trkpt>
      <trkpt lat="48.542744" lon="10.135801">
        <ele>489.204071</ele>
        <time>2025-11-11T19:03:23.836Z</time>
      </trkpt>
      <trkpt lat="48.542281" lon="10.137013">
        <ele>490.845111</ele>
        <time>2025-11-11T19:03:39.673Z</time>
      </trkpt>
      <trkpt lat="48.542028" lon="10.137442">
        <ele>491.485242</ele>
        <time>2025-11-11T19:03:45.753Z</time>
      </trkpt>
      <trkpt lat="48.541699" lon="10.137677">
        <ele>492.097714</ele>
        <time>2025-11-11T19:03:51.642Z</time>
      </trkpt>
      <trkpt lat="48.541121" lon="10.138023">
        <ele>493.455163</ele>
        <time>2025-11-11T19:04:02.404Z</time>
      </trkpt>
      <trkpt lat="48.540974" lon="10.138102">
        <ele>493.828793</ele>
        <time>2025-11-11T19:04:05.391Z</time>
      </trkpt>
      <trkpt lat="48.540632" lon="10.138286">
        <ele>494.698164</ele>
        <time>2025-11-11T19:04:12.716Z</time>
      </trkpt>
      <trkpt lat="48.540264" lon="10.138483">
        <ele>495.633103</ele>
        <time>2025-11-11T19:04:21.705Z</time>
      </trkpt>
      <trkpt lat="48.539775" lon="10.138743">
        <ele>496.718916</ele>
        <time>2025-11-11T19:04:32.988Z</time>
      </trkpt>
      <trkpt lat="48.539628" lon="10.138774">
        <ele>496.726573</ele>
        <time>2025-11-11T19:04:35.608Z</time>
      </trkpt>
      <trkpt lat="48.539469" lon="10.138707">
        <ele>496.735088</ele>
        <time>2025-11-11T19:04:38.201Z</time>
      </trkpt>
      <trkpt lat="48.539052" lon="10.138029">
        <ele>496.766695</ele>
        <time>2025-11-11T19:04:46.693Z</time>
      </trkpt>
      <trkpt lat="48.538946" lon="10.137850">
        <ele>496.774897</ele>
        <time>2025-11-11T19:04:48.356Z</time>
      </trkpt>
      <trkpt lat="48.538663" lon="10.137472">
        <ele>496.794386</ele>
        <time>2025-11-11T19:04:51.742Z</time>
      </trkpt>
      <trkpt lat="48.538594" lon="10.137590">
        <ele>496.799763</ele>
        <time>2025-11-11T19:04:52.631Z</time>
      </trkpt>
      <trkpt lat="48.538612" lon="10.137697">
        <ele>496.803534</ele>
        <time>2025-11-11T19:04:53.230Z</time>
      </trkpt>
      <trkpt lat="48.538644" lon="10.137762">
        <ele>496.806301</ele>
        <time>2025-11-11T19:04:53.708Z</time>
      </trkpt>
      <trkpt lat="48.538612" lon="10.137697">
        <ele>496.810016</ele>
        <time>2025-11-11T19:04:54.143Z</time>
      </trkpt>
      <trkpt lat="48.538594" lon="10.137590">
        <ele>496.818299</ele>
        <time>2025-11-11T19:04:54.776Z</time>
      </trkpt>
      <trkpt lat="48.538663" lon="10.137472">
        <ele>496.830110</ele>
        <time>2025-11-11T19:04:55.649Z</time>
      </trkpt>
      <trkpt lat="48.538371" lon="10.137199">
        <ele>496.869024</ele>
        <time>2025-11-11T19:04:58.795Z</time>
      </trkpt>
      <trkpt lat="48.538414" lon="10.136942">
        <ele>496.888912</ele>
        <time>2025-11-11T19:05:00.816Z</time>
      </trkpt>
      <trkpt lat="48.538395" lon="10.136473">
        <ele>496.924166</ele>
        <time>2025-11-11T19:05:05.366Z</time>
      </trkpt>
      <trkpt lat="48.538269" lon="10.135696">
        <ele>496.984184</ele>
        <time>2025-11-11T19:05:13.220Z</time>
      </trkpt>
      <trkpt lat="48.538243" lon="10.135388">
        <ele>497.007480</ele>
        <time>2025-11-11T19:05:16.764Z</time>
      </trkpt>
      <trkpt lat="48.538272" lon="10.135020">
        <ele>497.290899</ele>
        <time>2025-11-11T19:05:21.366Z</time>
      </trkpt>
      <trkpt lat="48.538297" lon="10.134643">
        <ele>497.632536</ele>
        <time>2025-11-11T19:05:26.041Z</time>
      </trkpt>
      <trkpt lat="48.538298" lon="10.134499">
        <ele>497.762386</ele>
        <time>2025-11-11T19:05:27.772Z</time>
      </trkpt>
      <trkpt lat="48.538379" lon="10.134456">
        <ele>497.879309</ele>
        <time>2025-11-11T19:05:29.294Z</time>
      </trkpt>
      <trkpt lat="48.538454" lon="10.134277">
        <ele>498.070313</ele>
        <time>2025-11-11T19:05:31.735Z</time>
      </trkpt>
      <trkpt lat="48.538595" lon="10.133803">
        <ele>498.538863</ele>
        <time>2025-11-11T19:05:37.372Z</time>
      </trkpt>
      <trkpt lat="48.538777" lon="10.133198">
        <ele>499.138045</ele>
        <time>2025-11-11T19:05:43.776Z</time>
      </trkpt>
      <trkpt lat="48.538863" lon="10.132988">
        <ele>499.360690</ele>
        <time>2025-11-11T19:05:46.111Z</time>
      </trkpt>
      <trkpt lat="48.538968" lon="10.132805">
        <ele>499.563730</ele>
        <time>2025-11-11T19:05:48.411Z</time>
      </trkpt>
      <trkpt lat="48.539093" lon="10.132754">
        <ele>499.717099</ele>
        <time>2025-11-11T19:05:50.296Z</time>
      </trkpt>
      <trkpt lat="48.539128" lon="10.132629">
        <ele>499.823537</ele>
        <time>2025-11-11T19:05:51.604Z</time>
      </trkpt>
      <trkpt lat="48.539244" lon="10.131703">
        <ele>500.562645</ele>
        <time>2025-11-11T19:06:00.903Z</time>
      </trkpt>
      <trkpt lat="48.539278" lon="10.131394">
        <ele>500.808304</ele>
        <time>2025-11-11T19:06:04.089Z</time>
      </trkpt>
      <trkpt lat="48.539281" lon="10.131239">
        <ele>500.929916</ele>
        <time>2025-11-11T19:06:05.585Z</time>
      </trkpt>
      <trkpt lat="48.539279" lon="10.131226">
        <ele>500.940383</ele>
        <time>2025-11-11T19:06:05.726Z</time>
      </trkpt>
      <trkpt lat="48.539249" lon="10.131027">
        <ele>501.100445</ele>
        <time>2025-11-11T19:06:07.759Z</time>
      </trkpt>
      <trkpt lat="48.539237" lon="10.130939">
        <ele>501.170908</ele>
        <time>2025-11-11T19:06:08.717Z</time>
      </trkpt>
      <trkpt lat="48.539177" lon="10.130538">
        <ele>501.493327</ele>
        <time>2025-11-11T19:06:13.171Z</time>
      </trkpt>
      <trkpt lat="48.539164" lon="10.130380">
        <ele>501.646850</ele>
        <time>2025-11-11T19:06:15.086Z</time>
      </trkpt>
      <trkpt lat="48.539138" lon="10.130120">
        <ele>502.078599</ele>
        <time>2025-11-11T19:06:18.274Z</time>
      </trkpt>
      <trkpt lat="48.539121" lon="10.129864">
        <ele>502.501048</ele>
        <time>2025-11-11T19:06:21.569Z</time>
      </trkpt>
      <trkpt lat="48.539098" lon="10.129531">
        <ele>503.050785</ele>
        <time>2025-11-11T19:06:26.105Z</time>
      </trkpt>
      <trkpt lat="48.539048" lon="10.129153">
        <ele>503.683708</ele>
        <time>2025-11-11T19:06:31.242Z</time>
      </trkpt>
      <trkpt lat="48.539033" lon="10.129040">
        <ele>503.872941</ele>
        <time>2025-11-11T19:06:32.830Z</time>
      </trkpt>
      <trkpt lat="48.538997" lon="10.128805">
        <ele>504.268994</ele>
        <time>2025-11-11T19:06:36.069Z</time>
      </trkpt>
      <trkpt lat="48.538948" lon="10.128278">
        <ele>505.142795</ele>
        <time>2025-11-11T19:06:43.333Z</time>
      </trkpt>
      <trkpt lat="48.538940" lon="10.128148">
        <ele>505.357170</ele>
        <time>2025-11-11T19:06:45.183Z</time>
      </trkpt>
      <trkpt lat="48.538930" lon="10.127990">
        <ele>505.617782</ele>
        <time>2025-11-11T19:06:47.378Z</time>
      </trkpt>
      <trkpt lat="48.538901" lon="10.127524">
        <ele>506.364217</ele>
        <time>2025-11-11T19:06:53.901Z</time>
      </trkpt>
      <trkpt lat="48.538562" lon="10.127462">
        <ele>507.155014</ele>
        <time>2025-11-11T19:07:00.791Z</time>
      </trkpt>
      <trkpt lat="48.538348" lon="10.127379">
        <ele>507.666679</ele>
        <time>2025-11-11T19:07:05.053Z</time>
      </trkpt>
      <trkpt lat="48.538327" lon="10.127237">
        <ele>507.889779</ele>
        <time>2025-11-11T19:07:06.837Z</time>
      </trkpt>
      <trkpt lat="48.538372" lon="10.126990">
        <ele>508.282591</ele>
        <time>2025-11-11T19:07:10.032Z</time>
      </trkpt>
      <trkpt lat="48.538214" lon="10.126913">
        <ele>508.667068</ele>
        <time>2025-11-11T19:07:13.194Z</time>
      </trkpt>
      <trkpt lat="48.538055" lon="10.126836">
        <ele>509.053749</ele>
        <time>2025-11-11T19:07:16.315Z</time>
      </trkpt>
      <trkpt lat="48.538053" lon="10.126732">
        <ele>509.213285</ele>
        <time>2025-11-11T19:07:17.588Z</time>
      </trkpt>
      <trkpt lat="48.538000" lon="10.126631">
        <ele>509.410893</ele>
        <time>2025-11-11T19:07:19.158Z</time>
      </trkpt>
      <trkpt lat="48.537904" lon="10.126610">
        <ele>509.635531</ele>
        <time>2025-11-11T19:07:20.923Z</time>
      </trkpt>
      <trkpt lat="48.537852" lon="10.126652">
        <ele>509.772093</ele>
        <time>2025-11-11T19:07:22.017Z</time>
      </trkpt>
      <trkpt lat="48.537815" lon="10.126746">
        <ele>509.939775</ele>
        <time>2025-11-11T19:07:23.337Z</time>
      </trkpt>
      <trkpt lat="48.537816" lon="10.126840">
        <ele>510.083929</ele>
        <time>2025-11-11T19:07:24.457Z</time>
      </trkpt>
      <trkpt lat="48.537702" lon="10.126902">
        <ele>510.323187</ele>
        <time>2025-11-11T19:07:26.682Z</time>
      </trkpt>
      <trkpt lat="48.537641" lon="10.126936">
        <ele>510.431357</ele>
        <time>2025-11-11T19:07:27.893Z</time>
      </trkpt>
      <trkpt lat="48.537495" lon="10.126601">
        <ele>510.873124</ele>
        <time>2025-11-11T19:07:32.884Z</time>
      </trkpt>
      <trkpt lat="48.537394" lon="10.126441">
        <ele>511.116626</ele>
        <time>2025-11-11T19:07:35.662Z</time>
      </trkpt>
      <trkpt lat="48.537068" lon="10.125923">
        <ele>511.903831</ele>
        <time>2025-11-11T19:07:44.573Z</time>
      </trkpt>
      <trkpt lat="48.536792" lon="10.125600">
        <ele>512.484700</ele>
        <time>2025-11-11T19:07:50.707Z</time>
      </trkpt>
      <trkpt lat="48.536707" lon="10.125519">
        <ele>512.651901</ele>
        <time>2025-11-11T19:07:52.345Z</time>
      </trkpt>
      <trkpt lat="48.536581" lon="10.125400">
        <ele>512.899126</ele>
        <time>2025-11-11T19:07:54.614Z</time>
      </trkpt>
      <trkpt lat="48.536362" lon="10.125280">
        <ele>513.200555</ele>
        <time>2025-11-11T19:07:57.989Z</time>
      </trkpt>
      <trkpt lat="48.536319" lon="10.125144">
        <ele>513.180229</ele>
        <time>2025-11-11T19:07:59.396Z</time>
      </trkpt>
      <trkpt lat="48.535318" lon="10.124109">
        <ele>512.933144</ele>
        <time>2025-11-11T19:08:13.122Z</time>
      </trkpt>
      <trkpt lat="48.535143" lon="10.123988">
        <ele>512.893942</ele>
        <time>2025-11-11T19:08:15.035Z</time>
      </trkpt>
      <trkpt lat="48.535046" lon="10.123921">
        <ele>512.872217</ele>
        <time>2025-11-11T19:08:16.095Z</time>
      </trkpt>
      <trkpt lat="48.533341" lon="10.123247">
        <ele>511.022500</ele>
        <time>2025-11-11T19:08:33.104Z</time>
      </trkpt>
      <trkpt lat="48.532476" lon="10.122955">
        <ele>509.752063</ele>
        <time>2025-11-11T19:08:41.339Z</time>
      </trkpt>
      <trkpt lat="48.532264" lon="10.122883">
        <ele>509.423806</ele>
        <time>2025-11-11T19:08:43.320Z</time>
      </trkpt>
      <trkpt lat="48.530886" lon="10.122334">
        <ele>507.585270</ele>
        <time>2025-11-11T19:08:56.250Z</time>
      </trkpt>
      <trkpt lat="48.530418" lon="10.122070">
        <ele>507.114320</ele>
        <time>2025-11-11T19:09:01.094Z</time>
      </trkpt>
      <trkpt lat="48.530386" lon="10.122046">
        <ele>507.080638</ele>
        <time>2025-11-11T19:09:01.456Z</time>
      </trkpt>
      <trkpt lat="48.529474" lon="10.121333">
        <ele>506.335410</ele>
        <time>2025-11-11T19:09:12.712Z</time>
      </trkpt>
      <trkpt lat="48.528837" lon="10.120932">
        <ele>506.169847</ele>
        <time>2025-11-11T19:09:20.738Z</time>
      </trkpt>
      <trkpt lat="48.528235" lon="10.120655">
        <ele>506.018873</ele>
        <time>2025-11-11T19:09:27.710Z</time>
      </trkpt>
      <trkpt lat="48.528129" lon="10.120620">
        <ele>505.992843</ele>
        <time>2025-11-11T19:09:28.881Z</time>
      </trkpt>
      <trkpt lat="48.527638" lon="10.120460">
        <ele>505.758597</ele>
        <time>2025-11-11T19:09:34.401Z</time>
      </trkpt>
      <trkpt lat="48.527075" lon="10.120355">
        <ele>505.478729</ele>
        <time>2025-11-11T19:09:40.835Z</time>
      </trkpt>
      <trkpt lat="48.526654" lon="10.120358">
        <ele>505.271026</ele>
        <time>2025-11-11T19:09:45.516Z</time>
      </trkpt>
      <trkpt lat="48.526143" lon="10.120419">
        <ele>504.621688</ele>
        <time>2025-11-11T19:09:50.633Z</time>
      </trkpt>
      <trkpt lat="48.525738" lon="10.120388">
        <ele>503.356999</ele>
        <time>2025-11-11T19:09:54.271Z</time>
      </trkpt>
      <trkpt lat="48.525385" lon="10.120274">
        <ele>502.231204</ele>
        <time>2025-11-11T19:09:57.267Z</time>
      </trkpt>
      <trkpt lat="48.525348" lon="10.120253">
        <ele>502.107930</ele>
        <time>2025-11-11T19:09:57.588Z</time>
      </trkpt>
      <trkpt lat="48.524613" lon="10.119827">
        <ele>499.652620</ele>
        <time>2025-11-11T19:10:03.659Z</time>
      </trkpt>
      <trkpt lat="48.524336" lon="10.119692">
        <ele>498.478024</ele>
        <time>2025-11-11T19:10:05.843Z</time>
      </trkpt>
      <trkpt lat="48.524059" lon="10.119639">
        <ele>497.292559</ele>
        <time>2025-11-11T19:10:07.946Z</time>
      </trkpt>
      <trkpt lat="48.523679" lon="10.119647">
        <ele>495.679035</ele>
        <time>2025-11-11T19:10:10.823Z</time>
      </trkpt>
      <trkpt lat="48.522970" lon="10.119717">
        <ele>492.662404</ele>
        <time>2025-11-11T19:10:16.337Z</time>
      </trkpt>
      <trkpt lat="48.522715" lon="10.119741">
        <ele>491.728346</ele>
        <time>2025-11-11T19:10:18.386Z</time>
      </trkpt>
      <trkpt lat="48.521957" lon="10.119862">
        <ele>490.304553</ele>
        <time>2025-11-11T19:10:24.868Z</time>
      </trkpt>
      <trkpt lat="48.521802" lon="10.119876">
        <ele>490.014504</ele>
        <time>2025-11-11T19:10:26.276Z</time>
      </trkpt>
      <trkpt lat="48.521478" lon="10.119848">
        <ele>489.408299</ele>
        <time>2025-11-11T19:10:29.359Z</time>
      </trkpt>
      <trkpt lat="48.521256" lon="10.119830">
        <ele>488.993018</ele>
        <time>2025-11-11T19:10:31.556Z</time>
      </trkpt>
      <trkpt lat="48.520682" lon="10.119714">
        <ele>488.344870</ele>
        <time>2025-11-11T19:10:37.533Z</time>
      </trkpt>
      <trkpt lat="48.520694" lon="10.119591">
        <ele>488.306903</ele>
        <time>2025-11-11T19:10:38.429Z</time>
      </trkpt>
      <trkpt lat="48.520257" lon="10.119459">
        <ele>488.101431</ele>
        <time>2025-11-11T19:10:43.142Z</time>
      </trkpt>
      <trkpt lat="48.519939" lon="10.119442">
        <ele>487.954725</ele>
        <time>2025-11-11T19:10:46.395Z</time>
      </trkpt>
      <trkpt lat="48.519750" lon="10.119432">
        <ele>487.867534</ele>
        <time>2025-11-11T19:10:48.327Z</time>
      </trkpt>
      <trkpt lat="48.518820" lon="10.119431">
        <ele>488.343337</ele>
        <time>2025-11-11T19:10:59.019Z</time>
      </trkpt>
      <trkpt lat="48.518824" lon="10.118501">
        <ele>489.232736</ele>
        <time>2025-11-11T19:11:08.595Z</time>
      </trkpt>
      <trkpt lat="48.518858" lon="10.118363">
        <ele>489.373543</ele>
        <time>2025-11-11T19:11:10.399Z</time>
      </trkpt>
      <trkpt lat="48.519030" lon="10.118219">
        <ele>489.657501</ele>
        <time>2025-11-11T19:11:14.172Z</time>
      </trkpt>
      <trkpt lat="48.519464" lon="10.118006">
        <ele>490.382323</ele>
        <time>2025-11-11T19:11:23.994Z</time>
      </trkpt>
      <trkpt lat="48.519593" lon="10.117899">
        <ele>490.821479</ele>
        <time>2025-11-11T19:11:27.307Z</time>
      </trkpt>
      <trkpt lat="48.519682" lon="10.117681">
        <ele>491.327569</ele>
        <time>2025-11-11T19:11:31.136Z</time>
      </trkpt>
      <trkpt lat="48.519679" lon="10.117421">
        <ele>491.841478</ele>
        <time>2025-11-11T19:11:35.036Z</time>
      </trkpt>
      <trkpt lat="48.519512" lon="10.116293">
        <ele>494.125722</ele>
        <time>2025-11-11T19:11:52.172Z</time>
      </trkpt>
      <trkpt lat="48.519505" lon="10.116070">
        <ele>494.566927</ele>
        <time>2025-11-11T19:11:55.370Z</time>
      </trkpt>
      <trkpt lat="48.520173" lon="10.114770">
        <ele>497.016797</ele>
        <time>2025-11-11T19:12:16.334Z</time>
      </trkpt>
      <trkpt lat="48.520246" lon="10.114527">
        <ele>497.351720</ele>
        <time>2025-11-11T19:12:19.392Z</time>
      </trkpt>
      <trkpt lat="48.520521" lon="10.114096">
        <ele>498.102899</ele>
        <time>2025-11-11T19:12:26.016Z</time>
      </trkpt>
      <trkpt lat="48.520738" lon="10.113880">
        <ele>498.595463</ele>
        <time>2025-11-11T19:12:30.245Z</time>
      </trkpt>
      <trkpt lat="48.521764" lon="10.113371">
        <ele>500.858445</ele>
        <time>2025-11-11T19:12:48.800Z</time>
      </trkpt>
      <trkpt lat="48.521974" lon="10.113234">
        <ele>501.350145</ele>
        <time>2025-11-11T19:12:53.300Z</time>
      </trkpt>
      <trkpt lat="48.522219" lon="10.113055">
        <ele>501.935154</ele>
        <time>2025-11-11T19:12:58.803Z</time>
      </trkpt>
      <trkpt lat="48.523374" lon="10.111997">
        <ele>504.347706</ele>
        <time>2025-11-11T19:13:26.406Z</time>
      </trkpt>
      <trkpt lat="48.524098" lon="10.111135">
        <ele>505.761676</ele>
        <time>2025-11-11T19:13:40.208Z</time>
      </trkpt>
      <trkpt lat="48.524301" lon="10.110884">
        <ele>505.543825</ele>
        <time>2025-11-11T19:13:43.015Z</time>
      </trkpt>
      <trkpt lat="48.525384" lon="10.109571">
        <ele>504.390634</ele>
        <time>2025-11-11T19:13:56.036Z</time>
      </trkpt>
      <trkpt lat="48.525537" lon="10.109488">
        <ele>504.286348</ele>
        <time>2025-11-11T19:13:57.595Z</time>
      </trkpt>
      <trkpt lat="48.526624" lon="10.108946">
        <ele>504.158953</ele>
        <time>2025-11-11T19:14:10.388Z</time>
      </trkpt>
      <trkpt lat="48.527119" lon="10.108702">
        <ele>504.101004</ele>
        <time>2025-11-11T19:14:17.431Z</time>
      </trkpt>
      <trkpt lat="48.527427" lon="10.108550">
        <ele>504.197190</ele>
        <time>2025-11-11T19:14:21.865Z</time>
      </trkpt>
      <trkpt lat="48.527385" lon="10.104885">
        <ele>505.461835</ele>
        <time>2025-11-11T19:14:54.003Z</time>
      </trkpt>
      <trkpt lat="48.527905" lon="10.102401">
        <ele>507.105485</ele>
        <time>2025-11-11T19:15:18.925Z</time>
      </trkpt>
      <trkpt lat="48.527920" lon="10.102290">
        <ele>507.204739</ele>
        <time>2025-11-11T19:15:20.183Z</time>
      </trkpt>
      <trkpt lat="48.528009" lon="10.101598">
        <ele>507.822343</ele>
        <time>2025-11-11T19:15:28.278Z</time>
      </trkpt>
      <trkpt lat="48.528050" lon="10.101287">
        <ele>508.100163</ele>
        <time>2025-11-11T19:15:31.997Z</time>
      </trkpt>
      <trkpt lat="48.528100" lon="10.100902">
        <ele>508.443975</ele>
        <time>2025-11-11T19:15:36.678Z</time>
      </trkpt>
      <trkpt lat="48.528054" lon="10.100711">
        <ele>508.627227</ele>
        <time>2025-11-11T19:15:39.699Z</time>
      </trkpt>
      <trkpt lat="48.528081" lon="10.100403">
        <ele>508.907360</ele>
        <time>2025-11-11T19:15:44.203Z</time>
      </trkpt>
      <trkpt lat="48.528284" lon="10.099188">
        <ele>510.037200</ele>
        <time>2025-11-11T19:16:01.393Z</time>
      </trkpt>
      <trkpt lat="48.528329" lon="10.099134">
        <ele>510.115458</ele>
        <time>2025-11-11T19:16:02.554Z</time>
      </trkpt>
      <trkpt lat="48.528374" lon="10.099079">
        <ele>510.194280</ele>
        <time>2025-11-11T19:16:03.740Z</time>
      </trkpt>
      <trkpt lat="48.528431" lon="10.099209">
        <ele>510.334858</ele>
        <time>2025-11-11T19:16:05.352Z</time>
      </trkpt>
      <trkpt lat="48.528487" lon="10.099263">
        <ele>510.425322</ele>
        <time>2025-11-11T19:16:06.397Z</time>
      </trkpt>
      <trkpt lat="48.528610" lon="10.099321">
        <ele>510.600762</ele>
        <time>2025-11-11T19:16:08.360Z</time>
      </trkpt>
      <trkpt lat="48.528673" lon="10.099336">
        <ele>510.687597</ele>
        <time>2025-11-11T19:16:09.312Z</time>
      </trkpt>
      <trkpt lat="48.529095" lon="10.099344">
        <ele>511.030717</ele>
        <time>2025-11-11T19:16:15.547Z</time>
      </trkpt>
      <trkpt lat="48.529109" lon="10.099343">
        <ele>511.037933</ele>
        <time>2025-11-11T19:16:15.746Z</time>
      </trkpt>
      <trkpt lat="48.529388" lon="10.099357">
        <ele>511.181664</ele>
        <time>2025-11-11T19:16:19.834Z</time>
      </trkpt>
      <trkpt lat="48.529443" lon="10.099369">
        <ele>511.210276</ele>
        <time>2025-11-11T19:16:20.595Z</time>
      </trkpt>
      <trkpt lat="48.529615" lon="10.099458">
        <ele>511.303890</ele>
        <time>2025-11-11T19:16:23.230Z</time>
      </trkpt>
      <trkpt lat="48.529709" lon="10.099565">
        <ele>511.364500</ele>
        <time>2025-11-11T19:16:24.860Z</time>
      </trkpt>
      <trkpt lat="48.529778" lon="10.099495">
        <ele>511.407299</ele>
        <time>2025-11-11T19:16:26.029Z</time>
      </trkpt>
      <trkpt lat="48.529764" lon="10.098968">
        <ele>511.587135</ele>
        <time>2025-11-11T19:16:32.170Z</time>
      </trkpt>
      <trkpt lat="48.529751" lon="10.098525">
        <ele>511.738332</ele>
        <time>2025-11-11T19:16:37.025Z</time>
      </trkpt>
      <trkpt lat="48.529749" lon="10.098437">
        <ele>511.768355</ele>
        <time>2025-11-11T19:16:37.947Z</time>
      </trkpt>
      <trkpt lat="48.529741" lon="10.098155">
        <ele>511.737833</ele>
        <time>2025-11-11T19:16:40.880Z</time>
      </trkpt>
      <trkpt lat="48.529730" lon="10.097860">
        <ele>511.575649</ele>
        <time>2025-11-11T19:16:43.870Z</time>
      </trkpt>
      <trkpt lat="48.529682" lon="10.097155">
        <ele>511.186629</ele>
        <time>2025-11-11T19:16:50.936Z</time>
      </trkpt>
      <trkpt lat="48.529629" lon="10.096261">
        <ele>510.693943</ele>
        <time>2025-11-11T19:17:07.221Z</time>
      </trkpt>
      <trkpt lat="48.530242" lon="10.095725">
        <ele>509.655892</ele>
        <time>2025-11-11T19:17:16.526Z</time>
      </trkpt>
      <trkpt lat="48.531927" lon="10.094254">
        <ele>504.301168</ele>
        <time>2025-11-11T19:17:39.725Z</time>
      </trkpt>
      <trkpt lat="48.532022" lon="10.094346">
        <ele>503.901859</ele>
        <time>2025-11-11T19:17:41.058Z</time>
      </trkpt>
      <trkpt lat="48.532299" lon="10.094823">
        <ele>502.415381</ele>
        <time>2025-11-11T19:17:45.965Z</time>
      </trkpt>
      <trkpt lat="48.532451" lon="10.095389">
        <ele>500.984346</ele>
        <time>2025-11-11T19:17:50.600Z</time>
      </trkpt>
      <trkpt lat="48.533177" lon="10.094193">
        <ele>497.004114</ele>
        <time>2025-11-11T19:17:58.822Z</time>
      </trkpt>
      <trkpt lat="48.533347" lon="10.093977">
        <ele>496.154403</ele>
        <time>2025-11-11T19:18:00.495Z</time>
      </trkpt>
      <trkpt lat="48.534029" lon="10.093137">
        <ele>492.788455</ele>
        <time>2025-11-11T19:18:07.424Z</time>
      </trkpt>
      <trkpt lat="48.534170" lon="10.092958">
        <ele>492.478733</ele>
        <time>2025-11-11T19:18:08.992Z</time>
      </trkpt>
      <trkpt lat="48.534336" lon="10.092683">
        <ele>492.404219</ele>
        <time>2025-11-11T19:18:11.278Z</time>
      </trkpt>
      <trkpt lat="48.534485" lon="10.092373">
        <ele>492.327514</ele>
        <time>2025-11-11T19:18:13.865Z</time>
      </trkpt>
      <trkpt lat="48.534564" lon="10.092143">
        <ele>492.275631</ele>
        <time>2025-11-11T19:18:15.829Z</time>
      </trkpt>
      <trkpt lat="48.534619" lon="10.092190">
        <ele>492.256520</ele>
        <time>2025-11-11T19:18:16.573Z</time>
      </trkpt>
      <trkpt lat="48.535028" lon="10.090383">
        <ele>492.470302</ele>
        <time>2025-11-11T19:18:34.767Z</time>
      </trkpt>
      <trkpt lat="48.535170" lon="10.089975">
        <ele>492.959780</ele>
        <time>2025-11-11T19:18:39.333Z</time>
      </trkpt>
      <trkpt lat="48.535447" lon="10.089428">
        <ele>493.691062</ele>
        <time>2025-11-11T19:18:46.109Z</time>
      </trkpt>
      <trkpt lat="48.535616" lon="10.089212">
        <ele>494.046131</ele>
        <time>2025-11-11T19:18:49.482Z</time>
      </trkpt>
      <trkpt lat="48.536301" lon="10.088507">
        <ele>496.290798</ele>
        <time>2025-11-11T19:19:06.912Z</time>
      </trkpt>
      <trkpt lat="48.536445" lon="10.088354">
        <ele>497.068012</ele>
        <time>2025-11-11T19:19:11.774Z</time>
      </trkpt>
      <trkpt lat="48.536575" lon="10.088527">
        <ele>497.832875</ele>
        <time>2025-11-11T19:19:16.842Z</time>
      </trkpt>
      <trkpt lat="48.536790" lon="10.088693">
        <ele>498.898791</ele>
        <time>2025-11-11T19:19:23.901Z</time>
      </trkpt>
      <trkpt lat="48.536976" lon="10.088763">
        <ele>499.744966</ele>
        <time>2025-11-11T19:19:29.440Z</time>
      </trkpt>
      <trkpt lat="48.537587" lon="10.088873">
        <ele>502.461217</ele>
        <time>2025-11-11T19:19:47.134Z</time>
      </trkpt>
      <trkpt lat="48.539250" lon="10.088986">
        <ele>508.900358</ele>
        <time>2025-11-11T19:20:25.382Z</time>
      </trkpt>
      <trkpt lat="48.539422" lon="10.088959">
        <ele>509.564785</ele>
        <time>2025-11-11T19:20:29.622Z</time>
      </trkpt>
      <trkpt lat="48.539611" lon="10.088857">
        <ele>510.464198</ele>
        <time>2025-11-11T19:20:34.781Z</time>
      </trkpt>
      <trkpt lat="48.540864" lon="10.087618">
        <ele>517.386353</ele>
        <time>2025-11-11T19:21:16.360Z</time>
      </trkpt>
      <trkpt lat="48.541093" lon="10.087437">
        <ele>518.433145</ele>
        <time>2025-11-11T19:21:22.998Z</time>
      </trkpt>
      <trkpt lat="48.541371" lon="10.087265">
        <ele>519.457560</ele>
        <time>2025-11-11T19:21:30.465Z</time>
      </trkpt>
      <trkpt lat="48.542190" lon="10.086933">
        <ele>522.349137</ele>
        <time>2025-11-11T19:21:49.571Z</time>
      </trkpt>
      <trkpt lat="48.542623" lon="10.086696">
        <ele>523.919598</ele>
        <time>2025-11-11T19:21:58.911Z</time>
      </trkpt>
      <trkpt lat="48.543290" lon="10.086276">
        <ele>525.738526</ele>
        <time>2025-11-11T19:22:13.489Z</time>
      </trkpt>
      <trkpt lat="48.544521" lon="10.085631">
        <ele>528.836650</ele>
        <time>2025-11-11T19:22:38.667Z</time>
      </trkpt>
      <trkpt lat="48.545515" lon="10.085055">
        <ele>531.008993</ele>
        <time>2025-11-11T19:22:58.563Z</time>
      </trkpt>
      <trkpt lat="48.545820" lon="10.084964">
        <ele>531.643357</ele>
        <time>2025-11-11T19:23:04.387Z</time>
      </trkpt>
      <trkpt lat="48.545921" lon="10.084950">
        <ele>531.850309</ele>
        <time>2025-11-11T19:23:06.333Z</time>
      </trkpt>
      <trkpt lat="48.547337" lon="10.085090">
        <ele>532.956347</ele>
        <time>2025-11-11T19:23:29.290Z</time>
      </trkpt>
      <trkpt lat="48.547911" lon="10.085133">
        <ele>533.260988</ele>
        <time>2025-11-11T19:23:35.004Z</time>
      </trkpt>
      <trkpt lat="48.548039" lon="10.085142">
        <ele>533.145166</ele>
        <time>2025-11-11T19:23:36.185Z</time>
      </trkpt>
      <trkpt lat="48.548940" lon="10.085226">
        <ele>532.329225</ele>
        <time>2025-11-11T19:23:44.388Z</time>
      </trkpt>
      <trkpt lat="48.549716" lon="10.085210">
        <ele>531.612658</ele>
        <time>2025-11-11T19:23:53.200Z</time>
      </trkpt>
      <trkpt lat="48.550139" lon="10.085142">
        <ele>531.071208</ele>
        <time>2025-11-11T19:23:58.013Z</time>
      </trkpt>
      <trkpt lat="48.550262" lon="10.085093">
        <ele>530.909296</ele>
        <time>2025-11-11T19:23:59.327Z</time>
      </trkpt>
      <trkpt lat="48.550487" lon="10.084935">
        <ele>530.593478</ele>
        <time>2025-11-11T19:24:01.772Z</time>
      </trkpt>
      <trkpt lat="48.550531" lon="10.084893">
        <ele>530.527230</ele>
        <time>2025-11-11T19:24:02.248Z</time>
      </trkpt>
      <trkpt lat="48.550585" lon="10.085028">
        <ele>530.394329</ele>
        <time>2025-11-11T19:24:03.252Z</time>
      </trkpt>
      <trkpt lat="48.551240" lon="10.084205">
        <ele>529.357649</ele>
        <time>2025-11-11T19:24:10.675Z</time>
      </trkpt>
      <trkpt lat="48.551364" lon="10.084227">
        <ele>529.314653</ele>
        <time>2025-11-11T19:24:11.722Z</time>
      </trkpt>
      <trkpt lat="48.551487" lon="10.084249">
        <ele>529.271999</ele>
        <time>2025-11-11T19:24:12.780Z</time>
      </trkpt>
      <trkpt lat="48.551560" lon="10.084019">
        <ele>529.213853</ele>
        <time>2025-11-11T19:24:14.219Z</time>
      </trkpt>
      <trkpt lat="48.551609" lon="10.083773">
        <ele>529.155291</ele>
        <time>2025-11-11T19:24:15.732Z</time>
      </trkpt>
      <trkpt lat="48.551664" lon="10.083706">
        <ele>529.130960</ele>
        <time>2025-11-11T19:24:16.382Z</time>
      </trkpt>
      <trkpt lat="48.551827" lon="10.084039">
        <ele>529.036550</ele>
        <time>2025-11-11T19:24:20.254Z</time>
      </trkpt>
      <trkpt lat="48.551901" lon="10.084107">
        <ele>529.006722</ele>
        <time>2025-11-11T19:24:21.593Z</time>
      </trkpt>
      <trkpt lat="48.552042" lon="10.084150">
        <ele>528.957185</ele>
        <time>2025-11-11T19:24:24.042Z</time>
      </trkpt>
      <trkpt lat="48.552955" lon="10.084200">
        <ele>529.734890</ele>
        <time>2025-11-11T19:24:43.627Z</time>
      </trkpt>
      <trkpt lat="48.552981" lon="10.084198">
        <ele>529.812303</ele>
        <time>2025-11-11T19:24:44.296Z</time>
      </trkpt>
      <trkpt lat="48.553030" lon="10.084194">
        <ele>529.958222</ele>
        <time>2025-11-11T19:24:45.592Z</time>
      </trkpt>
      <trkpt lat="48.553165" lon="10.084108">
        <ele>530.393887</ele>
        <time>2025-11-11T19:24:49.459Z</time>
      </trkpt>
      <trkpt lat="48.553249" lon="10.083924">
        <ele>530.833837</ele>
        <time>2025-11-11T19:24:52.823Z</time>
      </trkpt>
      <trkpt lat="48.553356" lon="10.083572">
        <ele>531.596241</ele>
        <time>2025-11-11T19:24:58.597Z</time>
      </trkpt>
      <trkpt lat="48.553428" lon="10.083326">
        <ele>532.125662</ele>
        <time>2025-11-11T19:25:02.753Z</time>
      </trkpt>
      <trkpt lat="48.553448" lon="10.083255">
        <ele>532.277539</ele>
        <time>2025-11-11T19:25:03.942Z</time>
      </trkpt>
      <trkpt lat="48.553484" lon="10.083121">
        <ele>532.562186</ele>
        <time>2025-11-11T19:25:06.205Z</time>
      </trkpt>
      <trkpt lat="48.553506" lon="10.083052">
        <ele>532.712932</ele>
        <time>2025-11-11T19:25:07.374Z</time>
      </trkpt>
      <trkpt lat="48.553542" lon="10.082923">
        <ele>532.988485</ele>
        <time>2025-11-11T19:25:09.530Z</time>
      </trkpt>
      <trkpt lat="48.553564" lon="10.082843">
        <ele>533.158996</ele>
        <time>2025-11-11T19:25:10.866Z</time>
      </trkpt>
      <trkpt lat="48.553602" lon="10.082714">
        <ele>533.436913</ele>
        <time>2025-11-11T19:25:13.022Z</time>
      </trkpt>
      <trkpt lat="48.553612" lon="10.082673">
        <ele>533.522916</ele>
        <time>2025-11-11T19:25:13.698Z</time>
      </trkpt>
      <trkpt lat="48.553653" lon="10.082475">
        <ele>533.931260</ele>
        <time>2025-11-11T19:25:16.751Z</time>
      </trkpt>
      <trkpt lat="48.553683" lon="10.082284">
        <ele>534.345159</ele>
        <time>2025-11-11T19:25:19.600Z</time>
      </trkpt>
      <trkpt lat="48.553717" lon="10.081856">
        <ele>535.303109</ele>
        <time>2025-11-11T19:25:27.276Z</time>
      </trkpt>
      <trkpt lat="48.553716" lon="10.081554">
        <ele>535.974238</ele>
        <time>2025-11-11T19:25:32.784Z</time>
      </trkpt>
      <trkpt lat="48.553786" lon="10.081532">
        <ele>536.214280</ele>
        <time>2025-11-11T19:25:34.662Z</time>
      </trkpt>
      <trkpt lat="48.554077" lon="10.081194">
        <ele>537.446617</ele>
        <time>2025-11-11T19:25:44.431Z</time>
      </trkpt>
      <trkpt lat="48.554288" lon="10.081054">
        <ele>538.220313</ele>
        <time>2025-11-11T19:25:50.561Z</time>
      </trkpt>
      <trkpt lat="48.554369" lon="10.081000">
        <ele>538.517554</ele>
        <time>2025-11-11T19:25:53.092Z</time>
      </trkpt>
      <trkpt lat="48.554616" lon="10.080796">
        <ele>539.462630</ele>
        <time>2025-11-11T19:26:00.751Z</time>
      </trkpt>
      <trkpt lat="48.554739" lon="10.080610">
        <ele>540.046897</ele>
        <time>2025-11-11T19:26:05.375Z</time>
      </trkpt>
      <trkpt lat="48.554808" lon="10.080497">
        <ele>540.344278</ele>
        <time>2025-11-11T19:26:08.015Z</time>
      </trkpt>
      <trkpt lat="48.554983" lon="10.080090">
        <ele>541.228414</ele>
        <time>2025-11-11T19:26:16.631Z</time>
      </trkpt>
      <trkpt lat="48.555073" lon="10.079879">
        <ele>541.685690</ele>
        <time>2025-11-11T19:26:21.232Z</time>
      </trkpt>
      <trkpt lat="48.555200" lon="10.079571">
        <ele>542.346739</ele>
        <time>2025-11-11T19:26:27.574Z</time>
      </trkpt>
      <trkpt lat="48.555242" lon="10.079467">
        <ele>542.568674</ele>
        <time>2025-11-11T19:26:29.674Z</time>
      </trkpt>
      <trkpt lat="48.555374" lon="10.079201">
        <ele>543.174305</ele>
        <time>2025-11-11T19:26:35.090Z</time>
      </trkpt>
      <trkpt lat="48.555474" lon="10.079000">
        <ele>543.632364</ele>
        <time>2025-11-11T19:26:39.220Z</time>
      </trkpt>
      <trkpt lat="48.555700" lon="10.078545">
        <ele>544.668656</ele>
        <time>2025-11-11T19:26:48.176Z</time>
      </trkpt>
      <trkpt lat="48.555870" lon="10.078202">
        <ele>545.253481</ele>
        <time>2025-11-11T19:26:54.392Z</time>
      </trkpt>
      <trkpt lat="48.555983" lon="10.078097">
        <ele>545.417835</ele>
        <time>2025-11-11T19:26:57.213Z</time>
      </trkpt>
      <trkpt lat="48.556033" lon="10.077876">
        <ele>545.609352</ele>
        <time>2025-11-11T19:27:00.391Z</time>
      </trkpt>
      <trkpt lat="48.556033" lon="10.077799">
        <ele>545.672492</ele>
        <time>2025-11-11T19:27:01.409Z</time>
      </trkpt>
      <trkpt lat="48.556283" lon="10.077725">
        <ele>545.988105</ele>
        <time>2025-11-11T19:27:05.410Z</time>
      </trkpt>
      <trkpt lat="48.556320" lon="10.077717">
        <ele>546.034411</ele>
        <time>2025-11-11T19:27:05.970Z</time>
      </trkpt>
      <trkpt lat="48.556478" lon="10.077680">
        <ele>546.232494</ele>
        <time>2025-11-11T19:27:08.321Z</time>
      </trkpt>
      <trkpt lat="48.556597" lon="10.077669">
        <ele>546.380198</ele>
        <time>2025-11-11T19:27:10.020Z</time>
      </trkpt>
      <trkpt lat="48.556762" lon="10.077665">
        <ele>546.584642</ele>
        <time>2025-11-11T19:27:12.362Z</time>
      </trkpt>
      <trkpt lat="48.556889" lon="10.077665">
        <ele>546.741982</ele>
        <time>2025-11-11T19:27:14.207Z</time>
      </trkpt>
      <trkpt lat="48.556985" lon="10.077661">
        <ele>546.860961</ele>
        <time>2025-11-11T19:27:15.581Z</time>
      </trkpt>
      <trkpt lat="48.557228" lon="10.077648">
        <ele>547.162202</ele>
        <time>2025-11-11T19:27:19.161Z</time>
      </trkpt>
      <trkpt lat="48.557447" lon="10.077617">
        <ele>547.495948</ele>
        <time>2025-11-11T19:27:22.477Z</time>
      </trkpt>
      <trkpt lat="48.557743" lon="10.077521">
        <ele>548.073991</ele>
        <time>2025-11-11T19:27:27.298Z</time>
      </trkpt>
      <trkpt lat="48.557997" lon="10.077409">
        <ele>548.579199</ele>
        <time>2025-11-11T19:27:31.687Z</time>
      </trkpt>
      <trkpt lat="48.558279" lon="10.077250">
        <ele>549.153906</ele>
        <time>2025-11-11T19:27:37.015Z</time>
      </trkpt>
      <trkpt lat="48.559564" lon="10.076145">
        <ele>552.508714</ele>
        <time>2025-11-11T19:28:06.551Z</time>
      </trkpt>
      <trkpt lat="48.559897" lon="10.075937">
        <ele>553.496301</ele>
        <time>2025-11-11T19:28:13.936Z</time>
      </trkpt>
      <trkpt lat="48.560219" lon="10.075840">
        <ele>554.396195</ele>
        <time>2025-11-11T19:28:20.793Z</time>
      </trkpt>
      <trkpt lat="48.560381" lon="10.075805">
        <ele>554.844714</ele>
        <time>2025-11-11T19:28:24.252Z</time>
      </trkpt>
      <trkpt lat="48.561913" lon="10.075462">
        <ele>559.263457</ele>
        <time>2025-11-11T19:28:57.951Z</time>
      </trkpt>
      <trkpt lat="48.562334" lon="10.075257">
        <ele>560.537739</ele>
        <time>2025-11-11T19:29:06.952Z</time>
      </trkpt>
      <trkpt lat="48.562725" lon="10.075037">
        <ele>561.607454</ele>
        <time>2025-11-11T19:29:14.965Z</time>
      </trkpt>
      <trkpt lat="48.563319" lon="10.074803">
        <ele>563.107818</ele>
        <time>2025-11-11T19:29:26.925Z</time>
      </trkpt>
      <trkpt lat="48.563654" lon="10.074695">
        <ele>563.945042</ele>
        <time>2025-11-11T19:29:33.751Z</time>
      </trkpt>
      <trkpt lat="48.564215" lon="10.074535">
        <ele>565.305879</ele>
        <time>2025-11-11T19:29:45.206Z</time>
      </trkpt>
      <trkpt lat="48.564292" lon="10.074511">
        <ele>565.411910</ele>
        <time>2025-11-11T19:29:46.803Z</time>
      </trkpt>
      <trkpt lat="48.564403" lon="10.074493">
        <ele>565.562469</ele>
        <time>2025-11-11T19:29:49.009Z</time>
      </trkpt>
      <trkpt lat="48.565155" lon="10.074189">
        <ele>566.612311</ele>
        <time>2025-11-11T19:30:03.099Z</time>
      </trkpt>
      <trkpt lat="48.565462" lon="10.074019">
        <ele>567.053267</ele>
        <time>2025-11-11T19:30:07.824Z</time>
      </trkpt>
      <trkpt lat="48.565824" lon="10.073767">
        <ele>567.590788</ele>
        <time>2025-11-11T19:30:12.946Z</time>
      </trkpt>
      <trkpt lat="48.566161" lon="10.073486">
        <ele>567.713633</ele>
        <time>2025-11-11T19:30:17.402Z</time>
      </trkpt>
      <trkpt lat="48.566515" lon="10.073125">
        <ele>567.747256</ele>
        <time>2025-11-11T19:30:22.115Z</time>
      </trkpt>
      <trkpt lat="48.566611" lon="10.073031">
        <ele>567.756262</ele>
        <time>2025-11-11T19:30:23.406Z</time>
      </trkpt>
      <trkpt lat="48.566876" lon="10.072911">
        <ele>567.778042</ele>
        <time>2025-11-11T19:30:26.546Z</time>
      </trkpt>
      <trkpt lat="48.567005" lon="10.072896">
        <ele>567.788229</ele>
        <time>2025-11-11T19:30:28.053Z</time>
      </trkpt>
      <trkpt lat="48.568990" lon="10.073195">
        <ele>568.733404</ele>
        <time>2025-11-11T19:30:54.295Z</time>
      </trkpt>
      <trkpt lat="48.569310" lon="10.073174">
        <ele>568.932034</ele>
        <time>2025-11-11T19:30:59.310Z</time>
      </trkpt>
      <trkpt lat="48.569545" lon="10.073030">
        <ele>569.271550</ele>
        <time>2025-11-11T19:31:03.413Z</time>
      </trkpt>
      <trkpt lat="48.569788" lon="10.072764">
        <ele>569.694420</ele>
        <time>2025-11-11T19:31:08.443Z</time>
      </trkpt>
      <trkpt lat="48.569904" lon="10.072557">
        <ele>569.947384</ele>
        <time>2025-11-11T19:31:11.544Z</time>
      </trkpt>
      <trkpt lat="48.570498" lon="10.071220">
        <ele>571.449180</ele>
        <time>2025-11-11T19:31:30.186Z</time>
      </trkpt>
      <trkpt lat="48.570852" lon="10.070550">
        <ele>571.441875</ele>
        <time>2025-11-11T19:31:38.071Z</time>
      </trkpt>
      <trkpt lat="48.571170" lon="10.070214">
        <ele>571.414040</ele>
        <time>2025-11-11T19:31:42.532Z</time>
      </trkpt>
      <trkpt lat="48.571351" lon="10.070081">
        <ele>571.399601</ele>
        <time>2025-11-11T19:31:44.642Z</time>
      </trkpt>
      <trkpt lat="48.571646" lon="10.069950">
        <ele>571.377544</ele>
        <time>2025-11-11T19:31:47.703Z</time>
      </trkpt>
      <trkpt lat="48.571897" lon="10.069891">
        <ele>571.359321</ele>
        <time>2025-11-11T19:31:50.179Z</time>
      </trkpt>
      <trkpt lat="48.572596" lon="10.069894">
        <ele>571.543669</ele>
        <time>2025-11-11T19:31:57.181Z</time>
      </trkpt>
      <trkpt lat="48.572895" lon="10.069890">
        <ele>571.639883</ele>
        <time>2025-11-11T19:32:00.548Z</time>
      </trkpt>
      <trkpt lat="48.573236" lon="10.069779">
        <ele>571.752123</ele>
        <time>2025-11-11T19:32:04.953Z</time>
      </trkpt>
      <trkpt lat="48.574799" lon="10.069033">
        <ele>574.279593</ele>
        <time>2025-11-11T19:32:33.868Z</time>
      </trkpt>
      <trkpt lat="48.575131" lon="10.068845">
        <ele>575.047712</ele>
        <time>2025-11-11T19:32:41.230Z</time>
      </trkpt>
      <trkpt lat="48.575313" lon="10.068586">
        <ele>575.589303</ele>
        <time>2025-11-11T19:32:46.472Z</time>
      </trkpt>
      <trkpt lat="48.575492" lon="10.068240">
        <ele>576.172794</ele>
        <time>2025-11-11T19:32:52.658Z</time>
      </trkpt>
      <trkpt lat="48.575794" lon="10.067774">
        <ele>576.997696</ele>
        <time>2025-11-11T19:33:01.584Z</time>
      </trkpt>
      <trkpt lat="48.576369" lon="10.067387">
        <ele>578.200752</ele>
        <time>2025-11-11T19:33:12.361Z</time>
      </trkpt>
      <trkpt lat="48.576413" lon="10.066143">
        <ele>579.593263</ele>
        <time>2025-11-11T19:33:25.374Z</time>
      </trkpt>
      <trkpt lat="48.576591" lon="10.062958">
        <ele>582.034694</ele>
        <time>2025-11-11T19:33:58.736Z</time>
      </trkpt>
      <trkpt lat="48.576738" lon="10.060319">
        <ele>583.298151</ele>
        <time>2025-11-11T19:34:24.369Z</time>
      </trkpt>
      <trkpt lat="48.577018" lon="10.058574">
        <ele>583.501977</ele>
        <time>2025-11-11T19:34:38.024Z</time>
      </trkpt>
      <trkpt lat="48.577630" lon="10.054758">
        <ele>582.675907</ele>
        <time>2025-11-11T19:35:06.279Z</time>
      </trkpt>
      <trkpt lat="48.577845" lon="10.053872">
        <ele>582.499269</ele>
        <time>2025-11-11T19:35:13.304Z</time>
      </trkpt>
      <trkpt lat="48.578929" lon="10.054230">
        <ele>582.190090</ele>
        <time>2025-11-11T19:35:25.753Z</time>
      </trkpt>
      <trkpt lat="48.578728" lon="10.046113">
        <ele>581.435038</ele>
        <time>2025-11-11T19:36:48.219Z</time>
      </trkpt>
      <trkpt lat="48.578608" lon="10.040399">
        <ele>586.192284</ele>
        <time>2025-11-11T19:38:07.222Z</time>
      </trkpt>
      <trkpt lat="48.578544" lon="10.037350">
        <ele>588.224261</ele>
        <time>2025-11-11T19:38:48.918Z</time>
      </trkpt>
      <trkpt lat="48.578494" lon="10.035097">
        <ele>587.877769</ele>
        <time>2025-11-11T19:39:10.938Z</time>
      </trkpt>
      <trkpt lat="48.578445" lon="10.033008">
        <ele>586.575181</ele>
        <time>2025-11-11T19:39:28.980Z</time>
      </trkpt>
      <trkpt lat="48.578393" lon="10.030808">
        <ele>585.890429</ele>
        <time>2025-11-11T19:39:51.176Z</time>
      </trkpt>
      <trkpt lat="48.578376" lon="10.030224">
        <ele>586.200088</ele>
        <time>2025-11-11T19:39:58.427Z</time>
      </trkpt>
      <trkpt lat="48.578363" lon="10.029777">
        <ele>586.459746</ele>
        <time>2025-11-11T19:40:04.170Z</time>
      </trkpt>
      <trkpt lat="48.578350" lon="10.029317">
        <ele>586.726941</ele>
        <time>2025-11-11T19:40:10.353Z</time>
      </trkpt>
      <trkpt lat="48.578331" lon="10.028681">
        <ele>587.096406</ele>
        <time>2025-11-11T19:40:18.770Z</time>
      </trkpt>
      <trkpt lat="48.578293" lon="10.028593">
        <ele>587.157391</ele>
        <time>2025-11-11T19:40:20.101Z</time>
      </trkpt>
      <trkpt lat="48.578484" lon="10.028085">
        <ele>587.517253</ele>
        <time>2025-11-11T19:40:25.784Z</time>
      </trkpt>
      <trkpt lat="48.578575" lon="10.027793">
        <ele>587.805219</ele>
        <time>2025-11-11T19:40:28.910Z</time>
      </trkpt>
      <trkpt lat="48.578627" lon="10.027630">
        <ele>587.966665</ele>
        <time>2025-11-11T19:40:30.658Z</time>
      </trkpt>
      <trkpt lat="48.578666" lon="10.027499">
        <ele>588.094825</ele>
        <time>2025-11-11T19:40:32.065Z</time>
      </trkpt>
      <trkpt lat="48.578688" lon="10.027428">
        <ele>588.164771</ele>
        <time>2025-11-11T19:40:32.852Z</time>
      </trkpt>
      <trkpt lat="48.578778" lon="10.027140">
        <ele>588.448934</ele>
        <time>2025-11-11T19:40:36.068Z</time>
      </trkpt>
      <trkpt lat="48.578811" lon="10.027035">
        <ele>588.552643</ele>
        <time>2025-11-11T19:40:37.262Z</time>
      </trkpt>
      <trkpt lat="48.578888" lon="10.026788">
        <ele>588.796243</ele>
        <time>2025-11-11T19:40:40.084Z</time>
      </trkpt>
      <trkpt lat="48.578924" lon="10.026647">
        <ele>588.931079</ele>
        <time>2025-11-11T19:40:41.700Z</time>
      </trkpt>
      <trkpt lat="48.578944" lon="10.026557">
        <ele>589.015781</ele>
        <time>2025-11-11T19:40:42.745Z</time>
      </trkpt>
      <trkpt lat="48.579004" lon="10.026289">
        <ele>589.268197</ele>
        <time>2025-11-11T19:40:45.810Z</time>
      </trkpt>
      <trkpt lat="48.579122" lon="10.025742">
        <ele>589.781491</ele>
        <time>2025-11-11T19:40:52.513Z</time>
      </trkpt>
      <trkpt lat="48.579134" lon="10.025679">
        <ele>589.839979</ele>
        <time>2025-11-11T19:40:53.313Z</time>
      </trkpt>
      <trkpt lat="48.579211" lon="10.025255">
        <ele>590.405204</ele>
        <time>2025-11-11T19:40:58.789Z</time>
      </trkpt>
      <trkpt lat="48.579255" lon="10.025009">
        <ele>590.745240</ele>
        <time>2025-11-11T19:41:01.942Z</time>
      </trkpt>
      <trkpt lat="48.579277" lon="10.024887">
        <ele>590.913969</ele>
        <time>2025-11-11T19:41:03.529Z</time>
      </trkpt>
      <trkpt lat="48.579290" lon="10.024758">
        <ele>591.088086</ele>
        <time>2025-11-11T19:41:05.125Z</time>
      </trkpt>
      <trkpt lat="48.579345" lon="10.024210">
        <ele>591.827676</ele>
        <time>2025-11-11T19:41:12.000Z</time>
      </trkpt>
      <trkpt lat="48.579394" lon="10.023929">
        <ele>592.215434</ele>
        <time>2025-11-11T19:41:15.483Z</time>
      </trkpt>
      <trkpt lat="48.579588" lon="10.024066">
        <ele>592.647310</ele>
        <time>2025-11-11T19:41:19.351Z</time>
      </trkpt>
      <trkpt lat="48.579613" lon="10.024085">
        <ele>592.703748</ele>
        <time>2025-11-11T19:41:19.869Z</time>
      </trkpt>
      <trkpt lat="48.579817" lon="10.024230">
        <ele>593.158417</ele>
        <time>2025-11-11T19:41:23.882Z</time>
      </trkpt>
      <trkpt lat="48.579892" lon="10.024283">
        <ele>593.325400</ele>
        <time>2025-11-11T19:41:25.343Z</time>
      </trkpt>
      <trkpt lat="48.579965" lon="10.024335">
        <ele>593.488165</ele>
        <time>2025-11-11T19:41:26.766Z</time>
      </trkpt>
      <trkpt lat="48.580188" lon="10.024480">
        <ele>594.285942</ele>
        <time>2025-11-11T19:41:31.158Z</time>
      </trkpt>
      <trkpt lat="48.580237" lon="10.024511">
        <ele>594.463803</ele>
        <time>2025-11-11T19:41:32.113Z</time>
      </trkpt>
      <trkpt lat="48.580329" lon="10.024568">
        <ele>594.796727</ele>
        <time>2025-11-11T19:41:33.971Z</time>
      </trkpt>
      <trkpt lat="48.580419" lon="10.024618">
        <ele>595.117790</ele>
        <time>2025-11-11T19:41:35.782Z</time>
      </trkpt>
      <trkpt lat="48.580554" lon="10.024692">
        <ele>595.598625</ele>
        <time>2025-11-11T19:41:38.631Z</time>
      </trkpt>
      <trkpt lat="48.580611" lon="10.024723">
        <ele>595.801460</ele>
        <time>2025-11-11T19:41:39.893Z</time>
      </trkpt>
      <trkpt lat="48.580650" lon="10.024742">
        <ele>595.938661</ele>
        <time>2025-11-11T19:41:40.739Z</time>
      </trkpt>
      <trkpt lat="48.580714" lon="10.024771">
        <ele>596.162379</ele>
        <time>2025-11-11T19:41:42.125Z</time>
      </trkpt>
      <trkpt lat="48.580886" lon="10.024850">
        <ele>596.764299</ele>
        <time>2025-11-11T19:41:46.107Z</time>
      </trkpt>
      <trkpt lat="48.580915" lon="10.024863">
        <ele>596.865582</ele>
        <time>2025-11-11T19:41:46.797Z</time>
      </trkpt>
      <trkpt lat="48.580945" lon="10.024714">
        <ele>597.210588</ele>
        <time>2025-11-11T19:41:49.597Z</time>
      </trkpt>
      <trkpt lat="48.580982" lon="10.023956">
        <ele>598.894238</ele>
        <time>2025-11-11T19:42:04.099Z</time>
      </trkpt>
      <trkpt lat="48.580997" lon="10.023757">
        <ele>599.337905</ele>
        <time>2025-11-11T19:42:08.147Z</time>
      </trkpt>
      <trkpt lat="48.581012" lon="10.023558">
        <ele>599.533515</ele>
        <time>2025-11-11T19:42:12.380Z</time>
      </trkpt>
      <trkpt lat="48.581097" lon="10.023435">
        <ele>599.533515</ele>
        <time>2025-11-11T19:42:16.278Z</time>
      </trkpt>
      <trkpt lat="48.581161" lon="10.022906">
        <ele>599.533515</ele>
        <time>2025-11-11T19:42:34.157Z</time>
      </trkpt>
      <trkpt lat="48.581224" lon="10.022377">
        <ele>599.533515</ele>
        <time>2025-11-11T19:42:51.643Z</time>
      </trkpt>
      <trkpt lat="48.581327" lon="10.022431">
        <ele>599.533515</ele>
        <time>2025-11-11T19:42:55.226Z</time>
      </trkpt>
      <trkpt lat="48.581589" lon="10.022428">
        <ele>599.533515</ele>
        <time>2025-11-11T19:43:03.750Z</time>
      </trkpt>
      <trkpt lat="48.581782" lon="10.022199">
        <ele>599.533515</ele>
        <time>2025-11-11T19:43:11.338Z</time>
      </trkpt>
    </trkseg>
  </trk>
</gpx>